Time;durP1;ratioP1;P1;durP2;ratioP2;P2;SDS_P1;SDS_P2;PMS_P1;PMS_P2;Temp;Humidity;BMP_temperature;BMP_pressure;BME280_temperature;BME280_humidity;BME280_pressure;Samples;Min_cycle;Max_cycle;Signal;HPM_P1;HPM_P2
2022/11/21 00:00:06;;;;;;;18.20;6.32;;;9.10;99.90;;;8.10;100.00;100884.53;4218876;28;20014;-76
2022/11/21 00:02:07;;;;;;;23.75;7.18;;;9.00;99.90;;;8.02;100.00;100873.88;4200692;28;20594;-76
2022/11/21 00:04:08;;;;;;;20.30;6.70;;;9.00;99.90;;;7.95;100.00;100876.22;4217698;28;20016;-76
2022/11/21 00:06:09;;;;;;;21.45;6.32;;;8.90;99.90;;;7.88;100.00;100880.38;4217516;28;20020;-76
2022/11/21 00:08:12;;;;;;;21.05;6.57;;;8.80;99.90;;;7.81;100.00;100887.13;4217445;28;20035;-76
2022/11/21 00:10:13;;;;;;;22.87;6.10;;;8.70;99.90;;;7.73;100.00;100873.84;4217356;28;20530;-76
2022/11/21 00:12:15;;;;;;;16.65;6.47;;;8.70;99.90;;;7.69;100.00;100875.91;4218823;28;20258;-76
2022/11/21 00:14:16;;;;;;;15.32;7.32;;;8.60;99.90;;;7.62;100.00;100861.63;4218556;28;20036;-76
2022/11/21 00:16:17;;;;;;;22.17;6.30;;;8.50;99.90;;;7.57;100.00;100852.50;4218392;28;20146;-76
2022/11/21 00:18:18;;;;;;;27.75;7.22;;;8.50;99.90;;;7.53;100.00;100841.44;4217481;28;20031;-76
2022/11/21 00:20:21;;;;;;;18.17;6.28;;;8.50;99.90;;;7.50;100.00;100846.13;4218572;28;20020;-76
2022/11/21 00:22:22;;;;;;;20.98;7.05;;;8.40;99.90;;;7.47;100.00;100836.72;4251352;28;20023;-76
2022/11/21 00:24:22;;;;;;;19.55;5.88;;;8.40;99.90;;;7.43;100.00;100830.09;4218485;28;20035;-76
2022/11/21 00:26:23;;;;;;;22.38;6.35;;;8.30;99.90;;;7.44;100.00;100830.91;4216674;28;20426;-76
2022/11/21 00:28:24;;;;;;;22.80;7.40;;;8.30;99.90;;;7.43;100.00;100819.59;4218714;28;20020;-76
2022/11/21 00:30:25;;;;;;;17.65;6.68;;;8.30;99.90;;;7.42;100.00;100817.09;4251194;28;20023;-76
2022/11/21 00:32:26;;;;;;;18.67;6.35;;;8.30;99.90;;;7.45;100.00;100804.53;4218470;28;20028;-76
2022/11/21 00:34:27;;;;;;;24.27;7.93;;;8.40;99.90;;;7.47;100.00;100801.75;4250927;28;20038;-76
2022/11/21 00:36:28;;;;;;;23.30;8.02;;;8.40;99.90;;;7.51;100.00;100800.53;4218670;28;20020;-76
2022/11/21 00:38:28;;;;;;;27.80;7.38;;;8.40;99.90;;;7.48;100.00;100780.66;4218482;28;20024;-76
2022/11/21 00:40:29;;;;;;;24.92;8.18;;;8.40;99.90;;;7.59;100.00;100783.16;4218450;28;20483;-76
2022/11/21 00:42:30;;;;;;;21.23;7.88;;;8.50;99.90;;;7.63;100.00;100767.97;4250943;28;20466;-76
2022/11/21 00:44:31;;;;;;;20.20;7.55;;;8.50;99.90;;;7.71;100.00;100771.56;4217431;28;20448;-76
2022/11/21 00:46:32;;;;;;;26.05;8.18;;;8.60;99.90;;;7.77;100.00;100747.38;4250873;28;20035;-76
2022/11/21 00:48:33;;;;;;;29.30;8.68;;;8.70;99.90;;;7.85;100.00;100740.63;4218366;28;20028;-76
2022/11/21 00:50:34;;;;;;;22.27;7.88;;;8.70;99.90;;;7.88;100.00;100714.09;4251067;28;20027;-76
2022/11/21 00:52:35;;;;;;;19.70;8.05;;;8.80;99.90;;;7.93;100.00;100714.47;4218200;28;20039;-76
2022/11/21 00:54:35;;;;;;;26.30;7.57;;;8.80;99.90;;;7.94;100.00;100700.38;4251009;28;20402;-76
2022/11/21 00:56:36;;;;;;;21.98;9.05;;;8.90;99.90;;;7.99;100.00;100706.88;4217120;28;20046;-76
2022/11/21 00:58:37;;;;;;;26.75;9.18;;;8.90;99.90;;;8.00;100.00;100697.22;4218226;28;20028;-76
2022/11/21 01:00:38;;;;;;;21.13;8.55;;;8.90;99.90;;;8.04;100.00;100688.88;4250585;28;20023;-76
2022/11/21 01:02:39;;;;;;;27.85;6.35;;;9.00;99.90;;;8.08;100.00;100684.19;4217117;28;20360;-76
2022/11/21 01:04:40;;;;;;;21.17;6.10;;;9.00;99.90;;;8.07;100.00;100672.84;4251006;28;20030;-76
2022/11/21 01:06:41;;;;;;;24.70;7.22;;;9.00;99.90;;;8.14;100.00;100665.22;4218183;28;20052;-76
2022/11/21 01:08:43;;;;;;;22.63;6.13;;;9.00;99.90;;;8.11;100.00;100652.38;4218037;28;20391;-76
2022/11/21 01:10:44;;;;;;;19.92;5.72;;;9.00;99.90;;;8.08;100.00;100647.41;4217005;28;20032;-76
2022/11/21 01:12:45;;;;;;;15.98;6.65;;;9.00;99.90;;;8.02;100.00;100642.72;4218178;28;20081;-76
2022/11/21 01:14:46;;;;;;;23.20;6.55;;;8.90;99.90;;;7.98;100.00;100646.59;4216581;28;20028;-76
2022/11/21 01:16:47;;;;;;;22.65;6.00;;;8.90;99.90;;;7.95;100.00;100647.72;4216791;28;20099;-76
2022/11/21 01:18:48;;;;;;;23.35;7.03;;;8.90;99.90;;;7.95;100.00;100646.88;4217180;28;20479;-76
2022/11/21 01:20:49;;;;;;;17.83;6.40;;;8.80;99.90;;;7.98;100.00;100646.59;4233446;28;20525;-76
2022/11/21 01:22:50;;;;;;;22.27;7.07;;;8.90;99.90;;;7.99;100.00;100637.75;4218032;28;20483;-76
2022/11/21 01:24:50;;;;;;;21.13;7.03;;;8.90;99.90;;;8.03;100.00;100626.00;4218115;28;20130;-76
2022/11/21 01:26:53;;;;;;;21.35;5.93;;;8.90;99.90;;;8.00;100.00;100613.16;4218109;28;20073;-76
2022/11/21 01:28:54;;;;;;;27.92;7.93;;;8.90;99.90;;;7.95;100.00;100604.84;4251008;28;20023;-76
2022/11/21 01:30:55;;;;;;;20.92;5.93;;;8.90;99.90;;;7.95;100.00;100599.59;4250624;28;20114;-76
2022/11/21 01:32:55;;;;;;;24.23;6.70;;;8.80;99.90;;;7.90;100.00;100597.41;4217842;28;20028;-76
2022/11/21 01:34:56;;;;;;;26.33;6.85;;;8.80;99.90;;;7.87;100.00;100583.72;4233544;28;20407;-76
2022/11/21 01:36:57;;;;;;;21.33;7.03;;;8.80;99.90;;;7.82;100.00;100590.22;4216786;28;20035;-76
2022/11/21 01:39:02;;;;;;;21.65;5.43;;;8.80;99.90;;;7.80;100.00;100591.34;4251973;27;20027;-76
2022/11/21 01:41:03;;;;;;;18.45;6.32;;;8.70;99.90;;;7.84;100.00;100584.00;4253382;27;20023;-76
2022/11/21 01:43:15;;;;;;;16.63;5.88;;;8.70;99.90;;;7.87;100.00;100573.22;4253835;27;20098;-76
2022/11/21 01:45:56;;;;;;;25.92;6.90;;;8.80;99.90;;;7.93;100.00;100559.53;4253458;27;20027;-76
2022/11/21 01:47:57;;;;;;;20.13;5.88;;;8.80;99.90;;;7.98;100.00;100552.03;4253185;27;20114;-76
2022/11/21 01:49:58;;;;;;;20.20;6.65;;;8.90;99.90;;;7.99;100.00;100532.69;4253504;27;20028;-76
2022/11/21 01:52:08;;;;;;;15.77;5.93;;;8.90;99.90;;;8.08;100.00;100532.66;4220780;28;20099;-76
2022/11/21 01:54:40;;;;;;;20.75;6.78;;;8.90;99.90;;;8.06;100.00;100523.28;4235637;28;20032;-76
2022/11/21 01:57:27;;;;;;;16.95;5.95;;;9.00;99.90;;;8.05;100.00;100513.72;4220796;28;20032;-76
2022/11/21 01:59:42;;;;;;;22.60;6.13;;;9.00;99.90;;;8.00;100.00;100508.09;4220667;28;20104;-76
2022/11/21 02:01:45;;;;;;;22.23;5.82;;;8.90;99.90;;;7.97;100.00;100514.47;4252393;27;20031;-76
2022/11/21 02:03:48;;;;;;;24.52;5.68;;;8.90;99.90;;;7.96;100.00;100512.78;4253089;27;20490;-76
2022/11/21 02:05:50;;;;;;;20.13;5.40;;;8.80;99.90;;;7.92;100.00;100510.59;4236120;28;20031;-76
2022/11/21 02:08:01;;;;;;;21.63;6.70;;;8.80;99.90;;;7.91;100.00;100501.06;4252948;27;20068;-76
2022/11/21 02:10:03;;;;;;;20.95;5.22;;;8.80;99.90;;;7.89;100.00;100498.56;4220335;28;20020;-76
2022/11/21 02:12:15;;;;;;;21.08;5.22;;;8.80;99.90;;;7.86;100.00;100485.72;4252896;27;20126;-76
2022/11/21 02:14:16;;;;;;;17.98;5.00;;;8.80;99.90;;;7.88;100.00;100482.97;4219240;28;20103;-76
2022/11/21 02:16:17;;;;;;;18.83;6.25;;;8.80;99.90;;;7.89;100.00;100479.38;4252884;27;20493;-76
2022/11/21 02:18:18;;;;;;;13.60;4.40;;;8.80;99.90;;;7.90;100.00;100473.97;4219344;28;20024;-76
2022/11/21 02:20:24;;;;;;;18.48;5.00;;;8.80;99.90;;;7.89;100.00;100467.06;4220155;28;20136;-76
2022/11/21 02:22:53;;;;;;;22.45;5.32;;;8.80;99.90;;;7.92;100.00;100472.03;4252813;27;20088;-76
2022/11/21 02:25:03;;;;;;;20.55;4.95;;;8.80;99.90;;;7.92;100.00;100465.94;4241837;27;20052;-76
2022/11/21 02:27:04;;;;;;;13.80;4.88;;;8.80;99.90;;;7.91;100.00;100461.69;4220317;28;20028;-75
2022/11/21 02:29:04;;;;;;;17.95;4.68;;;8.80;99.90;;;7.88;100.00;100457.56;4252896;27;20114;-76
2022/11/21 02:31:05;;;;;;;25.85;5.43;;;8.80;99.90;;;7.90;100.00;100462.66;4218698;28;20475;-76
2022/11/21 02:33:08;;;;;;;19.08;4.93;;;8.80;99.90;;;7.87;100.00;100449.81;4252713;27;20027;-76
2022/11/21 02:35:08;;;;;;;17.27;4.68;;;8.80;99.90;;;7.86;100.00;100427.13;4252687;27;20489;-76
2022/11/21 02:37:09;;;;;;;11.32;3.70;;;8.80;99.90;;;7.92;100.00;100431.81;4219880;28;20035;-76
2022/11/21 02:39:22;;;;;;;21.15;4.68;;;8.80;99.90;;;7.94;100.00;100427.25;4219628;28;20041;-76
2022/11/21 02:41:25;;;;;;;17.30;4.90;;;8.80;99.90;;;7.95;100.00;100421.00;4210253;28;20380;-76
2022/11/21 02:43:45;;;;;;;17.15;4.40;;;8.80;99.90;;;7.99;100.00;100414.50;4209027;28;20078;-76
2022/11/21 02:45:46;;;;;;;14.82;3.80;;;8.90;99.90;;;7.98;100.00;100400.53;4203197;28;20500;-76
2022/11/21 02:47:52;;;;;;;17.60;4.85;;;8.90;99.90;;;8.02;100.00;100406.31;4218723;28;20145;-76
2022/11/21 02:50:00;;;;;;;17.85;5.13;;;8.90;99.90;;;8.04;100.00;100392.06;4201815;28;20039;-76
2022/11/21 02:52:01;;;;;;;15.65;4.43;;;8.90;99.90;;;8.00;100.00;100379.38;4218639;28;20128;-76
2022/11/21 02:54:01;;;;;;;16.42;4.20;;;8.90;99.90;;;8.02;100.00;100382.69;4219639;28;20036;-76
2022/11/21 02:56:02;;;;;;;20.40;5.97;;;8.90;99.90;;;8.01;100.00;100363.47;4219946;28;20020;-76
2022/11/21 02:58:05;;;;;;;14.80;3.83;;;8.90;99.90;;;7.98;100.00;100353.25;4219812;28;20464;-76
2022/11/21 03:00:07;;;;;;;14.13;3.72;;;8.90;99.90;;;7.98;100.00;100348.00;4219534;28;20016;-76
2022/11/21 03:02:08;;;;;;;13.80;3.90;;;8.90;99.90;;;7.99;100.00;100335.69;4218225;28;20032;-76
2022/11/21 03:04:09;;;;;;;13.75;3.92;;;8.80;99.90;;;7.98;100.00;100334.03;4218231;28;20483;-76
2022/11/21 03:06:09;;;;;;;12.27;4.05;;;8.90;99.90;;;7.95;100.00;100331.72;4219722;28;20039;-76
2022/11/21 03:08:10;;;;;;;16.88;4.30;;;8.80;99.90;;;7.96;100.00;100333.38;4218655;28;20067;-76
2022/11/21 03:10:12;;;;;;;17.40;4.00;;;8.80;99.90;;;7.97;100.00;100319.28;4219369;28;20059;-76
2022/11/21 03:12:13;;;;;;;18.13;4.93;;;8.80;99.90;;;8.00;100.00;100311.94;4219249;28;20020;-76
2022/11/21 03:14:14;;;;;;;17.50;4.55;;;8.90;99.90;;;8.04;100.00;100299.28;4219415;28;20123;-76
2022/11/21 03:16:14;;;;;;;15.07;3.30;;;8.90;99.90;;;8.11;100.00;100300.34;4219232;28;20025;-76
2022/11/21 03:18:15;;;;;;;14.35;4.03;;;9.00;99.90;;;8.12;100.00;100294.13;4218402;28;20028;-76
2022/11/21 03:20:16;;;;;;;18.95;3.92;;;9.00;99.90;;;8.15;100.00;100297.25;4219104;28;20031;-76
2022/11/21 03:22:17;;;;;;;18.27;4.35;;;9.00;99.90;;;8.19;100.00;100288.09;4217767;28;20051;-76
2022/11/21 03:24:18;;;;;;;10.88;3.15;;;9.10;99.90;;;8.26;100.00;100285.72;4219288;28;20035;-76
2022/11/21 03:26:19;;;;;;;18.08;3.65;;;9.10;99.90;;;8.30;100.00;100276.59;4219078;28;20024;-76
2022/11/21 03:28:20;;;;;;;18.88;4.90;;;9.10;99.90;;;8.34;100.00;100273.47;4219550;28;20032;-76
2022/11/21 03:30:23;;;;;;;9.93;2.70;;;9.20;99.90;;;8.39;100.00;100266.94;4219065;28;20028;-76
2022/11/21 03:32:24;;;;;;;13.73;3.28;;;9.20;99.90;;;8.42;100.00;100264.03;4251709;27;20034;-76
2022/11/21 03:34:25;;;;;;;15.75;3.42;;;9.30;99.90;;;8.42;100.00;100248.25;4217618;28;20028;-76
2022/11/21 03:36:26;;;;;;;12.15;3.08;;;9.30;99.90;;;8.44;100.00;100239.22;4251852;27;20019;-76
2022/11/21 03:38:27;;;;;;;20.90;3.10;;;9.30;99.90;;;8.49;100.00;100236.13;4217959;28;20496;-76
2022/11/21 03:40:27;;;;;;;13.68;3.40;;;9.30;99.90;;;8.49;100.00;100231.69;4251765;27;20019;-76
2022/11/21 03:42:28;;;;;;;11.68;2.25;;;9.40;99.90;;;8.51;100.00;100218.41;4218998;28;20475;-76
2022/11/21 03:44:29;;;;;;;11.18;3.53;;;9.40;99.90;;;8.53;100.00;100208.56;4217569;28;20105;-76
2022/11/21 03:46:34;;;;;;;16.00;3.38;;;9.40;99.90;;;8.56;100.00;100195.94;4217697;28;20028;-76
2022/11/21 03:48:35;;;;;;;18.02;3.17;;;9.50;99.90;;;8.55;100.00;100186.38;4219066;28;20062;-76
2022/11/21 03:50:35;;;;;;;18.98;4.03;;;9.50;99.90;;;8.55;100.00;100170.63;4251612;27;20023;-76
2022/11/21 03:52:36;;;;;;;14.98;3.80;;;9.50;99.90;;;8.51;100.00;100161.38;4218951;28;20020;-76
2022/11/21 03:54:37;;;;;;;17.83;3.22;;;9.40;99.90;;;8.52;100.00;100160.41;4217475;28;20047;-76
2022/11/21 03:56:41;;;;;;;10.73;2.83;;;9.40;99.90;;;8.53;100.00;100158.63;4251504;27;20027;-76
2022/11/21 03:58:42;;;;;;;18.73;3.58;;;9.40;99.90;;;8.53;100.00;100153.34;4217271;28;20055;-76
2022/11/21 04:00:43;;;;;;;12.20;2.78;;;9.40;99.90;;;8.54;100.00;100144.50;4216937;28;20021;-76
2022/11/21 04:02:44;;;;;;;11.88;3.17;;;9.40;99.90;;;8.55;100.00;100139.06;4218409;28;20085;-76
2022/11/21 04:04:44;;;;;;;18.60;3.55;;;9.40;99.90;;;8.56;100.00;100139.91;4218773;28;20098;-76
2022/11/21 04:06:45;;;;;;;15.25;4.20;;;9.40;99.90;;;8.57;100.00;100136.28;4218662;28;20036;-76
2022/11/21 04:08:48;;;;;;;14.13;3.42;;;9.40;99.90;;;8.54;100.00;100126.09;4251106;27;20031;-76
2022/11/21 04:10:51;;;;;;;14.25;3.40;;;9.40;99.90;;;8.55;100.00;100117.22;4217586;28;20106;-76
2022/11/21 04:12:52;;;;;;;14.85;3.13;;;9.40;99.90;;;8.54;100.00;100110.31;4218723;28;20041;-76
2022/11/21 04:14:53;;;;;;;14.45;3.30;;;9.40;99.90;;;8.55;100.00;100110.16;4218320;28;20024;-76
2022/11/21 04:16:54;;;;;;;9.32;3.00;;;9.40;99.90;;;8.54;100.00;100099.81;4251172;27;20052;-75
2022/11/21 04:18:54;;;;;;;17.35;3.42;;;9.40;99.90;;;8.57;100.00;100086.34;4217656;28;20055;-75
2022/11/21 04:21:01;;;;;;;21.15;3.63;;;9.40;99.90;;;8.60;100.00;100078.94;4251471;27;20028;-76
2022/11/21 04:23:02;;;;;;;13.13;2.83;;;9.50;99.90;;;8.63;100.00;100062.06;4251080;27;20027;-76
2022/11/21 04:25:04;;;;;;;17.02;4.50;;;9.50;99.90;;;8.67;100.00;100053.66;4251207;28;20079;-76
2022/11/21 04:27:04;;;;;;;18.75;4.07;;;9.50;99.90;;;8.67;100.00;100040.53;4218495;28;20036;-76
2022/11/21 04:29:05;;;;;;;17.40;4.00;;;9.60;99.90;;;8.77;100.00;100050.91;4251577;28;20072;-76
2022/11/21 04:31:08;;;;;;;21.17;5.03;;;9.60;99.90;;;8.80;100.00;100038.25;4218210;28;20380;-76
2022/11/21 04:33:12;;;;;;;24.25;5.03;;;9.70;99.90;;;8.85;100.00;100028.06;4233841;28;20093;-76
2022/11/21 04:35:13;;;;;;;30.10;5.40;;;9.70;99.90;;;8.92;100.00;100019.53;4250948;28;20065;-76
2022/11/21 04:37:14;;;;;;;21.40;4.18;;;9.80;99.90;;;8.94;100.00;100004.41;4218769;28;20024;-76
2022/11/21 04:39:14;;;;;;;21.90;4.10;;;9.80;99.90;;;8.99;100.00;100002.13;4250716;28;20027;-76
2022/11/21 04:41:15;;;;;;;20.45;3.55;;;9.80;99.90;;;9.01;100.00;99979.09;4218409;28;20077;-76
2022/11/21 04:43:16;;;;;;;21.85;3.55;;;9.90;99.90;;;9.06;100.00;99977.63;4218568;28;20027;-76
2022/11/21 04:45:17;;;;;;;23.23;4.40;;;9.90;99.90;;;9.09;100.00;99965.94;4251013;28;20023;-76
2022/11/21 04:47:18;;;;;;;22.02;4.80;;;9.90;99.90;;;9.11;100.00;99964.78;4218133;28;20040;-76
2022/11/21 04:49:19;;;;;;;28.42;4.35;;;10.00;99.90;;;9.16;100.00;99959.03;4218197;28;20028;-76
2022/11/21 04:51:20;;;;;;;23.20;4.78;;;10.00;99.90;;;9.20;100.00;99953.25;4251076;28;20570;-76
2022/11/21 04:53:20;;;;;;;18.02;3.67;;;10.00;99.90;;;9.19;100.00;99953.44;4218367;28;20102;-76
2022/11/21 04:55:26;;;;;;;20.92;4.88;;;10.10;99.90;;;9.21;100.00;99943.56;4218217;28;20040;-76
2022/11/21 04:57:28;;;;;;;21.35;4.10;;;10.10;99.90;;;9.24;100.00;99936.16;4250270;28;20049;-76
2022/11/21 04:59:29;;;;;;;30.23;4.95;;;10.10;99.90;;;9.25;100.00;99929.09;4250769;28;20067;-76
2022/11/21 05:01:30;;;;;;;21.35;4.53;;;10.10;99.90;;;9.31;100.00;99933.69;4250719;28;20506;-76
2022/11/21 05:03:30;;;;;;;28.58;5.10;;;10.20;99.90;;;9.32;100.00;99915.09;4216990;28;20027;-76
2022/11/21 05:05:32;;;;;;;24.20;4.90;;;10.20;99.90;;;9.38;100.00;99909.16;4250765;28;20034;-76
2022/11/21 05:07:33;;;;;;;26.65;5.18;;;10.20;99.90;;;9.34;100.00;99912.31;4217144;28;20102;-76
2022/11/21 05:09:34;;;;;;;23.38;5.50;;;10.20;99.90;;;9.39;100.00;99902.91;4218193;28;20032;-76
2022/11/21 05:13:54;;;;;;;17.08;3.75;;;10.30;99.90;;;9.40;100.00;99887.94;4221596;28;20034;-76
2022/11/21 05:15:56;;;;;;;20.13;3.75;;;10.30;99.90;;;9.39;100.00;99883.66;4219804;28;20020;-76
2022/11/21 05:18:00;;;;;;;21.98;5.10;;;10.30;99.90;;;9.43;100.00;99870.00;4253086;27;20019;-76
2022/11/21 05:20:01;;;;;;;22.42;5.65;;;10.30;99.90;;;9.39;100.00;99865.22;4203103;28;20028;-76
2022/11/21 05:22:02;;;;;;;22.35;4.45;;;10.30;99.90;;;9.42;100.00;99857.00;4209023;28;20588;-76
2022/11/21 05:24:03;;;;;;;32.95;5.72;;;10.30;99.90;;;9.45;100.00;99846.94;4221356;28;20032;-76
2022/11/21 05:26:04;;;;;;;26.05;5.20;;;10.30;99.90;;;9.44;100.00;99833.94;4221179;28;20016;-76
2022/11/21 05:28:05;;;;;;;18.67;3.80;;;10.30;99.90;;;9.44;100.00;99839.22;4221010;28;20027;-76
2022/11/21 05:30:06;;;;;;;28.67;4.68;;;10.30;99.90;;;9.51;100.00;99834.09;4219691;28;20028;-76
2022/11/21 05:32:07;;;;;;;18.25;3.85;;;10.30;99.90;;;9.49;100.00;99825.56;4221345;28;20056;-76
2022/11/21 05:34:08;;;;;;;25.83;5.57;;;10.30;99.90;;;9.49;100.00;99815.03;4221145;28;20094;-76
2022/11/21 05:36:09;;;;;;;19.65;3.88;;;10.30;99.90;;;9.50;100.00;99809.56;4220852;28;20380;-76
2022/11/21 05:38:10;;;;;;;25.35;5.13;;;10.40;99.90;;;9.50;100.00;99796.41;4236665;28;20046;-76
2022/11/21 05:40:11;;;;;;;15.77;3.28;;;10.40;99.90;;;9.51;100.00;99797.22;4220947;28;20028;-76
2022/11/21 05:42:12;;;;;;;24.67;3.78;;;10.40;99.90;;;9.56;100.00;99790.44;4220942;28;20024;-76
2022/11/21 05:44:13;;;;;;;34.45;4.68;;;10.40;99.90;;;9.56;100.00;99774.66;4219449;28;20053;-76
2022/11/21 05:46:19;;;;;;;22.63;5.10;;;10.40;99.90;;;9.56;100.00;99763.34;4220709;28;20503;-76
2022/11/21 05:48:20;;;;;;;24.80;4.85;;;10.40;99.90;;;9.56;100.00;99768.59;4252861;27;20080;-76
2022/11/21 05:50:21;;;;;;;23.13;4.45;;;10.40;99.90;;;9.61;100.00;99768.88;4253444;27;20035;-76
2022/11/21 05:52:22;;;;;;;23.20;5.03;;;10.40;99.90;;;9.60;100.00;99757.53;4220658;28;20077;-76
2022/11/21 05:54:23;;;;;;;16.73;4.88;;;10.50;99.90;;;9.65;100.00;99751.72;4220842;28;20063;-76
2022/11/21 05:56:24;;;;;;;27.65;4.32;;;10.50;99.90;;;9.66;100.00;99745.47;4220794;28;20028;-76
2022/11/21 05:58:25;;;;;;;32.40;6.28;;;10.50;99.90;;;9.68;100.00;99728.50;4253397;27;20486;-76
2022/11/21 06:00:27;;;;;;;24.83;4.05;;;10.50;99.90;;;9.69;100.00;99718.78;4220316;28;20024;-76
2022/11/21 06:04:47;;;;;;;23.08;4.55;;;10.60;99.90;;;9.80;100.00;99724.47;4220609;28;20506;-76
2022/11/21 06:06:48;;;;;;;28.42;3.95;;;10.60;99.90;;;9.75;100.00;99710.19;4220498;28;20028;-76
2022/11/21 06:08:49;;;;;;;28.13;4.88;;;10.60;99.90;;;9.76;100.00;99696.88;4253381;27;20023;-76
2022/11/21 06:10:50;;;;;;;24.08;5.82;;;10.60;99.90;;;9.76;100.00;99686.34;4220708;28;20126;-76
2022/11/21 06:12:50;;;;;;;19.90;3.65;;;10.60;99.90;;;9.81;100.00;99686.63;4220550;28;20077;-76
2022/11/21 06:14:51;;;;;;;20.85;4.90;;;10.60;99.90;;;9.76;100.00;99673.16;4220166;28;20036;-76
2022/11/21 06:16:52;;;;;;;22.80;4.70;;;10.60;99.90;;;9.76;100.00;99675.81;4220434;28;20071;-76
2022/11/21 06:18:54;;;;;;;15.55;3.40;;;10.60;99.90;;;9.74;100.00;99669.88;4219479;28;20028;-76
2022/11/21 06:21:12;;;;;;;24.33;3.92;;;10.60;99.90;;;9.79;100.00;99670.19;4220217;28;20093;-76
2022/11/21 06:23:13;;;;;;;27.65;5.25;;;10.60;99.90;;;9.75;100.00;99666.25;4250698;27;20470;-76
2022/11/21 06:25:14;;;;;;;32.38;4.93;;;10.60;99.90;;;9.76;100.00;99660.00;4219649;28;20042;-76
2022/11/21 06:27:14;;;;;;;30.48;4.95;;;10.60;99.90;;;9.76;100.00;99653.91;4220221;28;20028;-76
2022/11/21 06:29:15;;;;;;;23.45;4.82;;;10.60;99.90;;;9.74;100.00;99640.91;4252659;27;20546;-76
2022/11/21 06:31:25;;;;;;;20.50;3.85;;;10.60;99.90;;;9.70;100.00;99629.09;4219936;28;20441;-76
2022/11/21 06:33:26;;;;;;;15.75;4.13;;;10.60;99.90;;;9.77;100.00;99634.47;4252170;27;20035;-76
2022/11/21 06:35:27;;;;;;;24.27;3.92;;;10.60;99.90;;;9.73;100.00;99628.75;4220111;28;20043;-76
2022/11/21 06:37:29;;;;;;;25.25;4.85;;;10.60;99.90;;;9.68;100.00;99625.00;4220024;28;20503;-76
2022/11/21 06:39:30;;;;;;;25.40;4.63;;;10.60;99.90;;;9.68;100.00;99614.47;4252361;27;20110;-76
2022/11/21 06:41:31;;;;;;;25.35;3.70;;;10.60;99.90;;;9.65;100.00;99613.00;4252079;27;20015;-76
2022/11/21 06:43:31;;;;;;;19.40;3.72;;;10.50;99.90;;;9.73;100.00;99605.06;4220004;28;20031;-76
2022/11/21 06:45:32;;;;;;;23.58;4.13;;;10.50;99.90;;;9.68;100.00;99599.47;4252494;27;20022;-76
2022/11/21 06:47:34;;;;;;;28.02;5.05;;;10.50;99.90;;;9.66;100.00;99590.94;4219716;28;20039;-76
2022/11/21 06:49:34;;;;;;;30.73;5.20;;;10.50;99.90;;;9.66;100.00;99575.16;4219347;28;20050;-76
2022/11/21 06:51:35;;;;;;;26.80;4.15;;;10.50;99.90;;;9.64;100.00;99571.88;4219825;28;20035;-76
2022/11/21 06:53:36;;;;;;;24.35;4.10;;;10.50;99.90;;;9.61;100.00;99559.09;4219679;28;20051;-76
2022/11/21 06:55:37;;;;;;;19.10;4.13;;;10.50;99.90;;;9.63;100.00;99551.81;4252215;27;20096;-76
2022/11/21 06:57:38;;;;;;;20.67;3.83;;;10.50;99.90;;;9.57;100.00;99530.63;4219766;28;20031;-76
2022/11/21 06:59:38;;;;;;;24.55;4.53;;;10.50;99.90;;;9.61;100.00;99529.28;4219533;28;20028;-76
2022/11/21 07:01:39;;;;;;;25.83;4.50;;;10.50;99.90;;;9.56;100.00;99524.56;4219723;28;20024;-76
2022/11/21 07:03:40;;;;;;;28.60;5.60;;;10.40;99.90;;;9.55;100.00;99515.03;4219472;28;20031;-76
2022/11/21 07:05:41;;;;;;;26.08;4.50;;;10.40;99.90;;;9.50;100.00;99487.63;4219630;28;20032;-76
2022/11/21 07:07:42;;;;;;;24.10;3.83;;;10.40;99.90;;;9.48;100.00;99466.72;4219581;28;20039;-76
2022/11/21 07:09:43;;;;;;;18.98;4.43;;;10.40;99.90;;;9.50;100.00;99453.41;4252148;27;20038;-76
2022/11/21 07:11:44;;;;;;;15.57;4.40;;;10.40;99.90;;;9.52;100.00;99461.94;4218171;28;20074;-76
2022/11/21 07:13:45;;;;;;;18.52;4.03;;;10.40;99.90;;;9.52;100.00;99457.50;4219454;28;20020;-76
2022/11/21 07:15:51;;;;;;;24.15;4.53;;;10.40;99.90;;;9.49;100.00;99449.13;4219250;28;20024;-76
2022/11/21 07:17:51;;;;;;;23.15;4.43;;;10.30;99.90;;;9.51;100.00;99447.94;4218357;28;20066;-76
2022/11/21 07:19:52;;;;;;;21.20;4.07;;;10.30;99.90;;;9.54;100.00;99439.69;4219228;28;20480;-76
2022/11/21 07:21:53;;;;;;;24.55;4.22;;;10.30;99.90;;;9.51;100.00;99419.00;4219137;28;20090;-76
2022/11/21 07:23:54;;;;;;;15.00;4.70;;;10.30;99.90;;;9.48;100.00;99400.94;4219340;28;20036;-75
2022/11/21 07:26:02;;;;;;;17.23;4.13;;;10.30;99.90;;;9.50;100.00;99393.66;4219310;28;20020;-76
2022/11/21 07:28:04;;;;;;;30.35;5.47;;;10.30;99.90;;;9.52;100.00;99388.22;4250909;27;20027;-76
2022/11/21 07:30:05;;;;;;;20.83;4.18;;;10.30;99.90;;;9.51;100.00;99376.06;4215918;28;20028;-76
2022/11/21 07:32:06;;;;;;;25.38;4.53;;;10.40;99.90;;;9.52;100.00;99377.69;4217591;28;20023;-76
2022/11/21 07:34:07;;;;;;;18.10;3.88;;;10.40;99.90;;;9.51;100.00;99368.97;4218487;28;20372;-76
2022/11/21 07:36:08;;;;;;;20.50;4.85;;;10.40;99.90;;;9.51;100.00;99370.78;4216524;28;20032;-77
2022/11/21 07:38:09;;;;;;;26.10;4.82;;;10.40;99.90;;;9.57;100.00;99362.16;4218010;28;20097;-77
2022/11/21 07:40:10;;;;;;;20.13;4.20;;;10.40;99.90;;;9.54;100.00;99337.03;4217736;28;20028;-76
2022/11/21 07:42:11;;;;;;;23.75;5.85;;;10.40;99.90;;;9.58;100.00;99340.09;4217848;28;20470;-77
2022/11/21 07:44:12;;;;;;;18.35;4.28;;;10.40;99.90;;;9.56;100.00;99329.75;4218834;28;20035;-76
2022/11/21 07:46:13;;;;;;;18.83;4.50;;;10.40;99.90;;;9.64;100.00;99334.94;4217664;28;20494;-77
2022/11/21 07:48:14;;;;;;;20.25;4.78;;;10.50;99.90;;;9.62;100.00;99326.38;4219120;28;20035;-77
2022/11/21 07:50:14;;;;;;;24.98;5.38;;;10.50;99.90;;;9.63;100.00;99330.66;4218988;28;20028;-77
2022/11/21 07:52:15;;;;;;;22.73;4.80;;;10.50;99.90;;;9.63;100.00;99328.03;4218777;28;20066;-77
2022/11/21 07:54:16;;;;;;;21.92;4.20;;;10.50;99.90;;;9.63;100.00;99322.75;4218859;28;20102;-77
2022/11/21 07:56:17;;;;;;;24.58;5.80;;;10.50;99.90;;;9.66;100.00;99318.94;4217639;28;20426;-77
2022/11/21 07:58:18;;;;;;;24.45;5.10;;;10.50;99.90;;;9.66;100.00;99322.38;4218958;28;20024;-77
2022/11/21 08:00:19;;;;;;;25.48;5.03;;;10.50;99.90;;;9.68;100.00;99314.28;4218393;28;20028;-77
2022/11/21 08:02:26;;;;;;;15.38;4.63;;;10.50;99.90;;;9.66;100.00;99311.84;4218914;28;20054;-77
2022/11/21 08:04:28;;;;;;;25.73;4.75;;;10.50;99.90;;;9.67;100.00;99310.88;4217596;28;20046;-77
2022/11/21 08:06:28;;;;;;;19.60;3.90;;;10.50;99.90;;;9.66;100.00;99301.31;4217494;28;20031;-77
2022/11/21 08:08:30;;;;;;;28.05;5.03;;;10.60;99.90;;;9.70;100.00;99297.34;4217324;28;20070;-77
2022/11/21 08:10:31;;;;;;;13.43;3.70;;;10.50;99.90;;;9.71;100.00;99288.41;4251455;27;20031;-77
2022/11/21 08:12:32;;;;;;;17.80;3.63;;;10.50;99.90;;;9.75;100.00;99289.69;4217457;28;20024;-77
2022/11/21 08:14:34;;;;;;;19.73;4.07;;;10.60;99.90;;;9.77;100.00;99286.84;4218379;28;20020;-77
2022/11/21 08:16:34;;;;;;;16.92;4.63;;;10.60;99.90;;;9.77;100.00;99282.41;4251143;27;20027;-77
2022/11/21 08:18:35;;;;;;;16.40;4.82;;;10.60;99.90;;;9.78;100.00;99277.97;4217724;28;20047;-77
2022/11/21 08:20:36;;;;;;;14.65;4.53;;;10.60;99.90;;;9.79;100.00;99280.41;4218662;28;20044;-78
2022/11/21 08:22:39;;;;;;;18.90;3.83;;;10.60;99.90;;;9.83;100.00;99268.50;4218554;28;20031;-78
2022/11/21 08:24:40;;;;;;;19.85;3.83;;;10.60;99.90;;;9.81;100.00;99262.59;4251187;27;20035;-77
2022/11/21 08:26:41;;;;;;;19.70;3.53;;;10.70;99.90;;;9.86;100.00;99260.22;4218338;28;20048;-77
2022/11/21 08:28:42;;;;;;;16.02;3.85;;;10.70;99.90;;;9.88;100.00;99252.97;4218511;28;20487;-78
2022/11/21 08:30:43;;;;;;;14.63;2.70;;;10.70;99.90;;;9.90;100.00;99250.13;4216900;28;20051;-77
2022/11/21 08:32:44;;;;;;;16.10;3.10;;;10.70;99.90;;;9.92;100.00;99248.09;4251262;28;20030;-77